sensor_id;sensor_type;location;lat;lon;timestamp;P1;durP1;ratioP1;P2;durP2;ratioP2
14209;SDS011;7188;56.070;12.698;2023-04-24T00:00:07;34.57;;;25.23;;
14209;SDS011;7188;56.070;12.698;2023-04-24T00:02:37;31.57;;;24.20;;
14209;SDS011;7188;56.070;12.698;2023-04-24T00:05:04;36.23;;;26.87;;
14209;SDS011;7188;56.070;12.698;2023-04-24T00:07:31;32.03;;;24.57;;
14209;SDS011;7188;56.070;12.698;2023-04-24T00:09:57;26.17;;;20.47;;
14209;SDS011;7188;56.070;12.698;2023-04-24T00:12:23;33.03;;;26.30;;
14209;SDS011;7188;56.070;12.698;2023-04-24T00:14:49;30.87;;;23.90;;
14209;SDS011;7188;56.070;12.698;2023-04-24T00:17:14;34.17;;;26.87;;
14209;SDS011;7188;56.070;12.698;2023-04-24T00:19:40;33.93;;;24.70;;
14209;SDS011;7188;56.070;12.698;2023-04-24T00:22:06;38.00;;;26.53;;
14209;SDS011;7188;56.070;12.698;2023-04-24T00:24:32;35.80;;;26.00;;
14209;SDS011;7188;56.070;12.698;2023-04-24T00:26:58;37.40;;;24.90;;
14209;SDS011;7188;56.070;12.698;2023-04-24T00:29:25;34.50;;;24.33;;
14209;SDS011;7188;56.070;12.698;2023-04-24T00:31:52;33.00;;;23.60;;
14209;SDS011;7188;56.070;12.698;2023-04-24T00:34:17;30.37;;;23.27;;
14209;SDS011;7188;56.070;12.698;2023-04-24T00:36:43;34.00;;;25.90;;
14209;SDS011;7188;56.070;12.698;2023-04-24T00:39:08;30.20;;;23.90;;
14209;SDS011;7188;56.070;12.698;2023-04-24T00:41:35;25.73;;;19.53;;
14209;SDS011;7188;56.070;12.698;2023-04-24T00:44:00;33.40;;;24.77;;
14209;SDS011;7188;56.070;12.698;2023-04-24T00:46:26;30.37;;;22.93;;
14209;SDS011;7188;56.070;12.698;2023-04-24T00:48:52;34.93;;;23.17;;
14209;SDS011;7188;56.070;12.698;2023-04-24T00:51:18;25.93;;;22.10;;
14209;SDS011;7188;56.070;12.698;2023-04-24T00:53:44;28.83;;;21.93;;
14209;SDS011;7188;56.070;12.698;2023-04-24T00:56:09;26.50;;;21.27;;
14209;SDS011;7188;56.070;12.698;2023-04-24T00:58:35;25.63;;;19.90;;
14209;SDS011;7188;56.070;12.698;2023-04-24T01:01:01;27.53;;;21.03;;
14209;SDS011;7188;56.070;12.698;2023-04-24T01:03:29;28.40;;;20.83;;
14209;SDS011;7188;56.070;12.698;2023-04-24T01:05:57;21.00;;;17.73;;
14209;SDS011;7188;56.070;12.698;2023-04-24T01:08:23;27.47;;;22.40;;
14209;SDS011;7188;56.070;12.698;2023-04-24T01:10:51;24.27;;;20.03;;
14209;SDS011;7188;56.070;12.698;2023-04-24T01:13:18;24.00;;;19.23;;
14209;SDS011;7188;56.070;12.698;2023-04-24T01:15:44;22.03;;;17.57;;
14209;SDS011;7188;56.070;12.698;2023-04-24T01:18:10;27.10;;;19.87;;
14209;SDS011;7188;56.070;12.698;2023-04-24T01:20:36;22.23;;;17.97;;
14209;SDS011;7188;56.070;12.698;2023-04-24T01:23:05;29.27;;;20.93;;
14209;SDS011;7188;56.070;12.698;2023-04-24T01:25:31;27.57;;;21.47;;
14209;SDS011;7188;56.070;12.698;2023-04-24T01:27:57;24.60;;;17.97;;
14209;SDS011;7188;56.070;12.698;2023-04-24T01:30:23;25.43;;;20.10;;
14209;SDS011;7188;56.070;12.698;2023-04-24T01:32:49;24.57;;;19.50;;
14209;SDS011;7188;56.070;12.698;2023-04-24T01:35:16;20.77;;;15.80;;
14209;SDS011;7188;56.070;12.698;2023-04-24T01:37:42;25.77;;;19.33;;
14209;SDS011;7188;56.070;12.698;2023-04-24T01:40:08;20.57;;;16.03;;
14209;SDS011;7188;56.070;12.698;2023-04-24T01:42:34;23.57;;;17.30;;
14209;SDS011;7188;56.070;12.698;2023-04-24T01:44:59;19.73;;;15.43;;
14209;SDS011;7188;56.070;12.698;2023-04-24T01:47:28;21.27;;;17.77;;
14209;SDS011;7188;56.070;12.698;2023-04-24T01:49:55;18.60;;;15.97;;
14209;SDS011;7188;56.070;12.698;2023-04-24T01:52:21;18.93;;;14.40;;
14209;SDS011;7188;56.070;12.698;2023-04-24T01:54:47;20.97;;;16.03;;
14209;SDS011;7188;56.070;12.698;2023-04-24T01:57:13;18.77;;;16.17;;
14209;SDS011;7188;56.070;12.698;2023-04-24T01:59:39;25.57;;;17.30;;
14209;SDS011;7188;56.070;12.698;2023-04-24T02:02:05;18.70;;;15.83;;
14209;SDS011;7188;56.070;12.698;2023-04-24T02:04:31;22.83;;;16.50;;
14209;SDS011;7188;56.070;12.698;2023-04-24T02:06:56;22.23;;;17.13;;
14209;SDS011;7188;56.070;12.698;2023-04-24T02:09:22;21.10;;;17.13;;
14209;SDS011;7188;56.070;12.698;2023-04-24T02:11:48;19.07;;;15.67;;
14209;SDS011;7188;56.070;12.698;2023-04-24T02:14:13;20.37;;;15.07;;
14209;SDS011;7188;56.070;12.698;2023-04-24T02:16:39;17.27;;;14.83;;
14209;SDS011;7188;56.070;12.698;2023-04-24T02:19:05;18.77;;;14.63;;
14209;SDS011;7188;56.070;12.698;2023-04-24T02:21:30;16.97;;;13.83;;
14209;SDS011;7188;56.070;12.698;2023-04-24T02:23:57;20.60;;;15.33;;
14209;SDS011;7188;56.070;12.698;2023-04-24T02:26:22;20.60;;;16.33;;
14209;SDS011;7188;56.070;12.698;2023-04-24T02:28:48;18.50;;;15.23;;
14209;SDS011;7188;56.070;12.698;2023-04-24T02:31:14;17.20;;;13.47;;
14209;SDS011;7188;56.070;12.698;2023-04-24T02:33:39;18.03;;;14.33;;
14209;SDS011;7188;56.070;12.698;2023-04-24T02:36:23;16.13;;;14.53;;
14209;SDS011;7188;56.070;12.698;2023-04-24T02:38:49;17.90;;;14.10;;
14209;SDS011;7188;56.070;12.698;2023-04-24T02:41:15;17.73;;;14.33;;
14209;SDS011;7188;56.070;12.698;2023-04-24T02:43:40;19.07;;;15.37;;
14209;SDS011;7188;56.070;12.698;2023-04-24T02:46:06;16.77;;;14.07;;
14209;SDS011;7188;56.070;12.698;2023-04-24T02:48:32;17.60;;;13.90;;
14209;SDS011;7188;56.070;12.698;2023-04-24T02:50:57;18.43;;;14.63;;
14209;SDS011;7188;56.070;12.698;2023-04-24T02:53:23;18.90;;;15.27;;
14209;SDS011;7188;56.070;12.698;2023-04-24T02:55:48;17.30;;;14.33;;
14209;SDS011;7188;56.070;12.698;2023-04-24T02:58:14;16.20;;;12.80;;
14209;SDS011;7188;56.070;12.698;2023-04-24T03:00:40;16.40;;;13.13;;
14209;SDS011;7188;56.070;12.698;2023-04-24T03:03:06;16.87;;;13.73;;
14209;SDS011;7188;56.070;12.698;2023-04-24T03:05:32;14.37;;;12.27;;
14209;SDS011;7188;56.070;12.698;2023-04-24T03:07:57;14.57;;;12.40;;
14209;SDS011;7188;56.070;12.698;2023-04-24T03:10:23;15.33;;;12.67;;
14209;SDS011;7188;56.070;12.698;2023-04-24T03:12:49;14.40;;;12.10;;
14209;SDS011;7188;56.070;12.698;2023-04-24T03:15:15;16.87;;;13.53;;
14209;SDS011;7188;56.070;12.698;2023-04-24T03:17:40;14.63;;;12.27;;
14209;SDS011;7188;56.070;12.698;2023-04-24T03:20:06;15.20;;;11.53;;
14209;SDS011;7188;56.070;12.698;2023-04-24T03:22:35;12.77;;;10.93;;
14209;SDS011;7188;56.070;12.698;2023-04-24T03:25:01;16.73;;;12.40;;
14209;SDS011;7188;56.070;12.698;2023-04-24T03:27:27;15.30;;;11.97;;
14209;SDS011;7188;56.070;12.698;2023-04-24T03:29:52;14.13;;;11.83;;
14209;SDS011;7188;56.070;12.698;2023-04-24T03:32:21;13.80;;;10.73;;
14209;SDS011;7188;56.070;12.698;2023-04-24T03:34:47;13.03;;;11.10;;
14209;SDS011;7188;56.070;12.698;2023-04-24T03:37:13;12.57;;;11.27;;
14209;SDS011;7188;56.070;12.698;2023-04-24T03:39:40;11.20;;;10.07;;
14209;SDS011;7188;56.070;12.698;2023-04-24T03:42:05;12.10;;;10.47;;
14209;SDS011;7188;56.070;12.698;2023-04-24T03:44:31;11.93;;;9.90;;
14209;SDS011;7188;56.070;12.698;2023-04-24T03:46:57;14.47;;;11.00;;
14209;SDS011;7188;56.070;12.698;2023-04-24T03:49:23;13.30;;;11.63;;
14209;SDS011;7188;56.070;12.698;2023-04-24T03:51:49;12.67;;;10.83;;
14209;SDS011;7188;56.070;12.698;2023-04-24T03:54:14;13.50;;;11.17;;
14209;SDS011;7188;56.070;12.698;2023-04-24T03:56:40;12.27;;;10.67;;
14209;SDS011;7188;56.070;12.698;2023-04-24T03:59:05;13.83;;;11.40;;
14209;SDS011;7188;56.070;12.698;2023-04-24T04:01:31;12.83;;;10.57;;
14209;SDS011;7188;56.070;12.698;2023-04-24T04:03:57;15.37;;;11.13;;
14209;SDS011;7188;56.070;12.698;2023-04-24T04:06:22;12.53;;;10.20;;
14209;SDS011;7188;56.070;12.698;2023-04-24T04:08:48;13.10;;;10.47;;
14209;SDS011;7188;56.070;12.698;2023-04-24T04:11:13;13.93;;;10.90;;
14209;SDS011;7188;56.070;12.698;2023-04-24T04:13:39;17.17;;;11.03;;
14209;SDS011;7188;56.070;12.698;2023-04-24T04:16:05;14.70;;;10.57;;
14209;SDS011;7188;56.070;12.698;2023-04-24T04:18:31;13.10;;;10.30;;
14209;SDS011;7188;56.070;12.698;2023-04-24T04:20:56;12.00;;;10.23;;
14209;SDS011;7188;56.070;12.698;2023-04-24T04:23:22;11.53;;;9.70;;
14209;SDS011;7188;56.070;12.698;2023-04-24T04:25:48;13.67;;;11.03;;
14209;SDS011;7188;56.070;12.698;2023-04-24T04:28:15;13.17;;;11.07;;
14209;SDS011;7188;56.070;12.698;2023-04-24T04:30:40;14.33;;;11.27;;
14209;SDS011;7188;56.070;12.698;2023-04-24T04:33:06;11.83;;;10.63;;
14209;SDS011;7188;56.070;12.698;2023-04-24T04:35:33;15.63;;;12.07;;
14209;SDS011;7188;56.070;12.698;2023-04-24T04:37:58;15.30;;;12.27;;
14209;SDS011;7188;56.070;12.698;2023-04-24T04:40:24;14.10;;;11.67;;
14209;SDS011;7188;56.070;12.698;2023-04-24T04:42:50;18.17;;;13.07;;
14209;SDS011;7188;56.070;12.698;2023-04-24T04:45:18;16.60;;;12.17;;
14209;SDS011;7188;56.070;12.698;2023-04-24T04:47:43;19.80;;;12.80;;
14209;SDS011;7188;56.070;12.698;2023-04-24T04:50:09;16.23;;;12.30;;
14209;SDS011;7188;56.070;12.698;2023-04-24T04:52:35;16.90;;;12.63;;
14209;SDS011;7188;56.070;12.698;2023-04-24T04:55:01;19.00;;;13.53;;
14209;SDS011;7188;56.070;12.698;2023-04-24T04:57:27;19.03;;;13.70;;
14209;SDS011;7188;56.070;12.698;2023-04-24T04:59:53;21.70;;;14.43;;
14209;SDS011;7188;56.070;12.698;2023-04-24T05:02:18;20.23;;;14.03;;
14209;SDS011;7188;56.070;12.698;2023-04-24T05:04:44;18.97;;;15.60;;
14209;SDS011;7188;56.070;12.698;2023-04-24T05:07:10;18.30;;;14.63;;
14209;SDS011;7188;56.070;12.698;2023-04-24T05:09:36;17.87;;;13.03;;
14209;SDS011;7188;56.070;12.698;2023-04-24T05:12:02;17.87;;;14.13;;
14209;SDS011;7188;56.070;12.698;2023-04-24T05:14:28;18.13;;;14.20;;
14209;SDS011;7188;56.070;12.698;2023-04-24T05:16:53;17.97;;;14.07;;
14209;SDS011;7188;56.070;12.698;2023-04-24T05:19:19;18.43;;;13.97;;
14209;SDS011;7188;56.070;12.698;2023-04-24T05:21:45;18.00;;;14.83;;
14209;SDS011;7188;56.070;12.698;2023-04-24T05:24:11;22.17;;;14.37;;
14209;SDS011;7188;56.070;12.698;2023-04-24T05:26:36;17.97;;;13.70;;
14209;SDS011;7188;56.070;12.698;2023-04-24T05:29:02;17.93;;;14.10;;
14209;SDS011;7188;56.070;12.698;2023-04-24T05:31:29;18.27;;;14.97;;
14209;SDS011;7188;56.070;12.698;2023-04-24T05:33:54;23.30;;;14.87;;
14209;SDS011;7188;56.070;12.698;2023-04-24T05:36:20;20.40;;;15.33;;
14209;SDS011;7188;56.070;12.698;2023-04-24T05:38:45;18.10;;;15.43;;
14209;SDS011;7188;56.070;12.698;2023-04-24T05:41:11;18.97;;;13.37;;
14209;SDS011;7188;56.070;12.698;2023-04-24T05:43:38;21.07;;;15.67;;
14209;SDS011;7188;56.070;12.698;2023-04-24T05:46:04;19.30;;;14.03;;
14209;SDS011;7188;56.070;12.698;2023-04-24T05:48:29;18.60;;;15.37;;
14209;SDS011;7188;56.070;12.698;2023-04-24T05:50:55;21.07;;;16.03;;
14209;SDS011;7188;56.070;12.698;2023-04-24T05:53:21;20.53;;;15.00;;
14209;SDS011;7188;56.070;12.698;2023-04-24T05:55:47;18.83;;;14.53;;
14209;SDS011;7188;56.070;12.698;2023-04-24T05:58:12;17.77;;;14.63;;
14209;SDS011;7188;56.070;12.698;2023-04-24T06:00:39;17.17;;;14.93;;
14209;SDS011;7188;56.070;12.698;2023-04-24T06:03:07;17.13;;;13.60;;
14209;SDS011;7188;56.070;12.698;2023-04-24T06:05:33;16.23;;;12.70;;
14209;SDS011;7188;56.070;12.698;2023-04-24T06:07:59;15.57;;;13.10;;
14209;SDS011;7188;56.070;12.698;2023-04-24T06:10:25;14.70;;;12.50;;
14209;SDS011;7188;56.070;12.698;2023-04-24T06:12:51;13.87;;;12.47;;
14209;SDS011;7188;56.070;12.698;2023-04-24T06:15:16;15.43;;;13.07;;
14209;SDS011;7188;56.070;12.698;2023-04-24T06:17:42;15.27;;;13.07;;
14209;SDS011;7188;56.070;12.698;2023-04-24T06:20:08;15.03;;;11.87;;
14209;SDS011;7188;56.070;12.698;2023-04-24T06:22:35;13.40;;;12.00;;
14209;SDS011;7188;56.070;12.698;2023-04-24T06:25:01;14.83;;;11.83;;
14209;SDS011;7188;56.070;12.698;2023-04-24T06:27:27;12.53;;;11.23;;
14209;SDS011;7188;56.070;12.698;2023-04-24T06:29:52;12.60;;;11.33;;
14209;SDS011;7188;56.070;12.698;2023-04-24T06:32:22;14.70;;;11.70;;
14209;SDS011;7188;56.070;12.698;2023-04-24T06:34:49;12.63;;;11.33;;
14209;SDS011;7188;56.070;12.698;2023-04-24T06:37:16;13.93;;;12.47;;
14209;SDS011;7188;56.070;12.698;2023-04-24T06:39:41;12.97;;;11.67;;
14209;SDS011;7188;56.070;12.698;2023-04-24T06:42:07;13.53;;;12.10;;
14209;SDS011;7188;56.070;12.698;2023-04-24T06:44:34;11.77;;;10.57;;
14209;SDS011;7188;56.070;12.698;2023-04-24T06:47:05;11.50;;;10.30;;
14209;SDS011;7188;56.070;12.698;2023-04-24T06:49:32;14.37;;;10.43;;
14209;SDS011;7188;56.070;12.698;2023-04-24T06:51:57;12.47;;;10.17;;
14209;SDS011;7188;56.070;12.698;2023-04-24T06:54:23;14.37;;;10.10;;
14209;SDS011;7188;56.070;12.698;2023-04-24T06:56:48;11.80;;;10.67;;
14209;SDS011;7188;56.070;12.698;2023-04-24T06:59:16;11.93;;;10.63;;
14209;SDS011;7188;56.070;12.698;2023-04-24T07:01:45;11.27;;;10.17;;
14209;SDS011;7188;56.070;12.698;2023-04-24T07:04:10;12.70;;;9.77;;
14209;SDS011;7188;56.070;12.698;2023-04-24T07:06:37;9.90;;;8.87;;
14209;SDS011;7188;56.070;12.698;2023-04-24T07:09:04;10.83;;;9.37;;
14209;SDS011;7188;56.070;12.698;2023-04-24T07:11:30;10.77;;;9.67;;
14209;SDS011;7188;56.070;12.698;2023-04-24T07:13:55;11.10;;;9.33;;
14209;SDS011;7188;56.070;12.698;2023-04-24T07:16:21;10.43;;;9.37;;
14209;SDS011;7188;56.070;12.698;2023-04-24T07:18:47;12.40;;;9.97;;
14209;SDS011;7188;56.070;12.698;2023-04-24T07:21:12;12.23;;;10.90;;
14209;SDS011;7188;56.070;12.698;2023-04-24T07:23:38;12.27;;;10.07;;
14209;SDS011;7188;56.070;12.698;2023-04-24T07:26:05;13.23;;;10.70;;
14209;SDS011;7188;56.070;12.698;2023-04-24T07:28:31;11.17;;;9.53;;
14209;SDS011;7188;56.070;12.698;2023-04-24T07:30:57;12.27;;;10.03;;
14209;SDS011;7188;56.070;12.698;2023-04-24T07:33:23;12.03;;;10.70;;
14209;SDS011;7188;56.070;12.698;2023-04-24T07:35:49;13.43;;;10.77;;
14209;SDS011;7188;56.070;12.698;2023-04-24T07:38:15;15.07;;;11.90;;
14209;SDS011;7188;56.070;12.698;2023-04-24T07:40:41;14.80;;;11.30;;
14209;SDS011;7188;56.070;12.698;2023-04-24T07:43:06;15.07;;;11.97;;
14209;SDS011;7188;56.070;12.698;2023-04-24T07:45:32;14.90;;;13.40;;
14209;SDS011;7188;56.070;12.698;2023-04-24T07:48:02;13.47;;;11.77;;
14209;SDS011;7188;56.070;12.698;2023-04-24T07:50:28;13.17;;;11.80;;
14209;SDS011;7188;56.070;12.698;2023-04-24T07:52:53;12.30;;;11.10;;
14209;SDS011;7188;56.070;12.698;2023-04-24T07:55:19;13.20;;;11.80;;
14209;SDS011;7188;56.070;12.698;2023-04-24T07:57:45;12.97;;;11.63;;
14209;SDS011;7188;56.070;12.698;2023-04-24T08:00:11;11.73;;;9.90;;
14209;SDS011;7188;56.070;12.698;2023-04-24T08:02:37;11.07;;;9.07;;
14209;SDS011;7188;56.070;12.698;2023-04-24T08:05:03;11.17;;;9.03;;
14209;SDS011;7188;56.070;12.698;2023-04-24T08:07:28;10.97;;;8.47;;
14209;SDS011;7188;56.070;12.698;2023-04-24T08:09:54;8.50;;;7.50;;
14209;SDS011;7188;56.070;12.698;2023-04-24T08:12:20;10.60;;;9.30;;
14209;SDS011;7188;56.070;12.698;2023-04-24T08:14:45;9.50;;;8.50;;
14209;SDS011;7188;56.070;12.698;2023-04-24T08:17:11;8.87;;;8.03;;
14209;SDS011;7188;56.070;12.698;2023-04-24T08:19:37;9.43;;;8.53;;
14209;SDS011;7188;56.070;12.698;2023-04-24T08:22:02;9.87;;;8.23;;
14209;SDS011;7188;56.070;12.698;2023-04-24T08:24:29;8.83;;;8.00;;
14209;SDS011;7188;56.070;12.698;2023-04-24T08:26:54;9.17;;;8.27;;
14209;SDS011;7188;56.070;12.698;2023-04-24T08:29:22;9.17;;;8.27;;
14209;SDS011;7188;56.070;12.698;2023-04-24T08:31:48;9.57;;;8.67;;
14209;SDS011;7188;56.070;12.698;2023-04-24T08:34:14;8.97;;;8.07;;
14209;SDS011;7188;56.070;12.698;2023-04-24T08:36:39;8.27;;;7.47;;
14209;SDS011;7188;56.070;12.698;2023-04-24T08:39:05;7.93;;;7.17;;
14209;SDS011;7188;56.070;12.698;2023-04-24T08:41:31;8.93;;;8.03;;
14209;SDS011;7188;56.070;12.698;2023-04-24T08:43:59;8.83;;;8.03;;
14209;SDS011;7188;56.070;12.698;2023-04-24T08:46:27;8.80;;;7.80;;
14209;SDS011;7188;56.070;12.698;2023-04-24T08:48:53;8.60;;;7.90;;
14209;SDS011;7188;56.070;12.698;2023-04-24T08:51:19;8.03;;;7.23;;
14209;SDS011;7188;56.070;12.698;2023-04-24T08:53:45;8.00;;;7.37;;
14209;SDS011;7188;56.070;12.698;2023-04-24T08:56:11;7.33;;;6.40;;
14209;SDS011;7188;56.070;12.698;2023-04-24T08:58:38;7.50;;;6.90;;
14209;SDS011;7188;56.070;12.698;2023-04-24T09:01:09;7.13;;;6.43;;
14209;SDS011;7188;56.070;12.698;2023-04-24T09:03:36;6.17;;;5.63;;
14209;SDS011;7188;56.070;12.698;2023-04-24T09:06:02;9.10;;;6.10;;
14209;SDS011;7188;56.070;12.698;2023-04-24T09:08:28;6.97;;;6.37;;
14209;SDS011;7188;56.070;12.698;2023-04-24T09:10:55;5.80;;;5.37;;
14209;SDS011;7188;56.070;12.698;2023-04-24T09:13:23;5.33;;;4.83;;
14209;SDS011;7188;56.070;12.698;2023-04-24T09:15:49;6.10;;;5.53;;
14209;SDS011;7188;56.070;12.698;2023-04-24T09:18:16;5.70;;;5.20;;
14209;SDS011;7188;56.070;12.698;2023-04-24T09:21:06;5.90;;;5.40;;
14209;SDS011;7188;56.070;12.698;2023-04-24T09:23:33;5.60;;;5.00;;
14209;SDS011;7188;56.070;12.698;2023-04-24T09:26:01;4.90;;;4.50;;
14209;SDS011;7188;56.070;12.698;2023-04-24T09:28:32;5.73;;;5.00;;
14209;SDS011;7188;56.070;12.698;2023-04-24T09:33:39;4.60;;;4.20;;
14209;SDS011;7188;56.070;12.698;2023-04-24T09:36:05;5.10;;;4.70;;
14209;SDS011;7188;56.070;12.698;2023-04-24T09:38:35;6.03;;;5.07;;
14209;SDS011;7188;56.070;12.698;2023-04-24T09:41:05;4.07;;;3.60;;
14209;SDS011;7188;56.070;12.698;2023-04-24T09:43:32;4.90;;;4.17;;
14209;SDS011;7188;56.070;12.698;2023-04-24T09:45:59;4.80;;;4.40;;
14209;SDS011;7188;56.070;12.698;2023-04-24T09:48:33;5.17;;;4.67;;
14209;SDS011;7188;56.070;12.698;2023-04-24T09:51:03;4.13;;;3.83;;
14209;SDS011;7188;56.070;12.698;2023-04-24T09:53:32;4.60;;;4.30;;
14209;SDS011;7188;56.070;12.698;2023-04-24T09:56:07;4.17;;;3.87;;
14209;SDS011;7188;56.070;12.698;2023-04-24T09:58:34;4.60;;;4.30;;
14209;SDS011;7188;56.070;12.698;2023-04-24T10:01:01;4.40;;;4.10;;
14209;SDS011;7188;56.070;12.698;2023-04-24T10:03:29;4.60;;;4.03;;
14209;SDS011;7188;56.070;12.698;2023-04-24T10:05:59;4.33;;;3.93;;
14209;SDS011;7188;56.070;12.698;2023-04-24T10:08:25;4.77;;;4.30;;
14209;SDS011;7188;56.070;12.698;2023-04-24T10:10:51;4.67;;;4.27;;
14209;SDS011;7188;56.070;12.698;2023-04-24T10:13:17;3.80;;;3.50;;
14209;SDS011;7188;56.070;12.698;2023-04-24T10:15:43;3.90;;;3.60;;
14209;SDS011;7188;56.070;12.698;2023-04-24T10:18:10;4.70;;;4.30;;
14209;SDS011;7188;56.070;12.698;2023-04-24T10:20:37;3.97;;;3.60;;
14209;SDS011;7188;56.070;12.698;2023-04-24T10:23:04;3.70;;;3.40;;
14209;SDS011;7188;56.070;12.698;2023-04-24T10:25:30;3.40;;;3.07;;
14209;SDS011;7188;56.070;12.698;2023-04-24T10:27:58;2.97;;;2.77;;
14209;SDS011;7188;56.070;12.698;2023-04-24T10:30:28;3.37;;;3.10;;
14209;SDS011;7188;56.070;12.698;2023-04-24T10:32:55;4.30;;;3.97;;
14209;SDS011;7188;56.070;12.698;2023-04-24T10:35:21;3.87;;;3.57;;
14209;SDS011;7188;56.070;12.698;2023-04-24T10:37:52;4.50;;;4.10;;
14209;SDS011;7188;56.070;12.698;2023-04-24T10:40:26;4.13;;;3.83;;
14209;SDS011;7188;56.070;12.698;2023-04-24T10:42:54;4.27;;;3.97;;
14209;SDS011;7188;56.070;12.698;2023-04-24T10:45:22;3.20;;;3.00;;
14209;SDS011;7188;56.070;12.698;2023-04-24T10:47:58;3.47;;;3.27;;
14209;SDS011;7188;56.070;12.698;2023-04-24T10:50:27;4.30;;;3.90;;
14209;SDS011;7188;56.070;12.698;2023-04-24T10:52:55;4.23;;;3.70;;
14209;SDS011;7188;56.070;12.698;2023-04-24T10:58:12;5.10;;;4.70;;
14209;SDS011;7188;56.070;12.698;2023-04-24T11:00:40;6.03;;;4.70;;
14209;SDS011;7188;56.070;12.698;2023-04-24T11:03:07;5.27;;;4.83;;
14209;SDS011;7188;56.070;12.698;2023-04-24T11:08:36;5.00;;;4.50;;
14209;SDS011;7188;56.070;12.698;2023-04-24T11:11:16;5.20;;;4.80;;
14209;SDS011;7188;56.070;12.698;2023-04-24T11:19:06;5.23;;;4.90;;
14209;SDS011;7188;56.070;12.698;2023-04-24T11:29:39;4.60;;;4.20;;
14209;SDS011;7188;56.070;12.698;2023-04-24T11:35:01;4.73;;;4.33;;
14209;SDS011;7188;56.070;12.698;2023-04-24T11:37:38;4.77;;;4.47;;
14209;SDS011;7188;56.070;12.698;2023-04-24T11:40:06;4.53;;;4.23;;
14209;SDS011;7188;56.070;12.698;2023-04-24T11:42:34;6.50;;;4.50;;
14209;SDS011;7188;56.070;12.698;2023-04-24T11:45:00;6.00;;;5.40;;
14209;SDS011;7188;56.070;12.698;2023-04-24T11:47:27;4.73;;;4.30;;
14209;SDS011;7188;56.070;12.698;2023-04-24T11:49:54;4.47;;;4.07;;
14209;SDS011;7188;56.070;12.698;2023-04-24T11:52:20;5.10;;;4.70;;
14209;SDS011;7188;56.070;12.698;2023-04-24T11:54:51;5.80;;;4.83;;
14209;SDS011;7188;56.070;12.698;2023-04-24T11:57:20;5.03;;;4.63;;
14209;SDS011;7188;56.070;12.698;2023-04-24T11:59:52;4.93;;;4.53;;
14209;SDS011;7188;56.070;12.698;2023-04-24T12:02:25;4.67;;;4.33;;
14209;SDS011;7188;56.070;12.698;2023-04-24T12:04:55;4.00;;;3.70;;
14209;SDS011;7188;56.070;12.698;2023-04-24T12:07:21;4.50;;;4.17;;
14209;SDS011;7188;56.070;12.698;2023-04-24T12:09:49;4.43;;;3.90;;
14209;SDS011;7188;56.070;12.698;2023-04-24T12:12:20;4.23;;;3.93;;
14209;SDS011;7188;56.070;12.698;2023-04-24T12:14:55;4.87;;;4.37;;
14209;SDS011;7188;56.070;12.698;2023-04-24T12:17:28;6.60;;;4.73;;
14209;SDS011;7188;56.070;12.698;2023-04-24T12:19:58;5.07;;;4.67;;
14209;SDS011;7188;56.070;12.698;2023-04-24T12:22:42;4.40;;;4.00;;
14209;SDS011;7188;56.070;12.698;2023-04-24T12:25:09;4.80;;;4.40;;
14209;SDS011;7188;56.070;12.698;2023-04-24T12:27:35;4.77;;;4.37;;
14209;SDS011;7188;56.070;12.698;2023-04-24T12:30:03;5.60;;;4.70;;
14209;SDS011;7188;56.070;12.698;2023-04-24T12:32:30;5.43;;;4.43;;
14209;SDS011;7188;56.070;12.698;2023-04-24T12:34:56;4.83;;;4.43;;
14209;SDS011;7188;56.070;12.698;2023-04-24T12:37:26;4.90;;;4.60;;
14209;SDS011;7188;56.070;12.698;2023-04-24T12:42:34;5.27;;;4.77;;
14209;SDS011;7188;56.070;12.698;2023-04-24T12:45:06;4.80;;;4.50;;
14209;SDS011;7188;56.070;12.698;2023-04-24T12:47:33;5.30;;;4.87;;
14209;SDS011;7188;56.070;12.698;2023-04-24T12:50:00;4.83;;;4.53;;
14209;SDS011;7188;56.070;12.698;2023-04-24T12:52:27;5.33;;;4.80;;
14209;SDS011;7188;56.070;12.698;2023-04-24T12:54:54;4.93;;;4.43;;
14209;SDS011;7188;56.070;12.698;2023-04-24T12:57:22;5.23;;;4.73;;
14209;SDS011;7188;56.070;12.698;2023-04-24T12:59:48;4.97;;;4.57;;
14209;SDS011;7188;56.070;12.698;2023-04-24T13:02:14;4.50;;;4.20;;
14209;SDS011;7188;56.070;12.698;2023-04-24T13:04:46;5.40;;;4.83;;
14209;SDS011;7188;56.070;12.698;2023-04-24T13:07:12;5.13;;;4.80;;
14209;SDS011;7188;56.070;12.698;2023-04-24T13:09:39;4.43;;;4.13;;
14209;SDS011;7188;56.070;12.698;2023-04-24T13:12:05;4.47;;;4.17;;
14209;SDS011;7188;56.070;12.698;2023-04-24T13:14:31;3.77;;;3.57;;
14209;SDS011;7188;56.070;12.698;2023-04-24T13:16:57;4.40;;;4.00;;
14209;SDS011;7188;56.070;12.698;2023-04-24T13:19:26;5.57;;;5.07;;
14209;SDS011;7188;56.070;12.698;2023-04-24T13:21:53;8.80;;;5.57;;
14209;SDS011;7188;56.070;12.698;2023-04-24T13:24:20;5.90;;;5.30;;
14209;SDS011;7188;56.070;12.698;2023-04-24T13:26:49;5.30;;;4.90;;
14209;SDS011;7188;56.070;12.698;2023-04-24T13:29:16;5.97;;;5.43;;
14209;SDS011;7188;56.070;12.698;2023-04-24T13:31:41;6.63;;;6.03;;
14209;SDS011;7188;56.070;12.698;2023-04-24T13:34:07;5.47;;;5.07;;
14209;SDS011;7188;56.070;12.698;2023-04-24T13:36:33;5.57;;;5.17;;
14209;SDS011;7188;56.070;12.698;2023-04-24T13:38:59;5.27;;;4.87;;
14209;SDS011;7188;56.070;12.698;2023-04-24T13:41:24;5.83;;;5.23;;
14209;SDS011;7188;56.070;12.698;2023-04-24T13:43:50;4.83;;;4.50;;
14209;SDS011;7188;56.070;12.698;2023-04-24T13:46:16;4.33;;;3.97;;
14209;SDS011;7188;56.070;12.698;2023-04-24T13:48:42;5.47;;;4.97;;
14209;SDS011;7188;56.070;12.698;2023-04-24T13:51:07;4.67;;;4.20;;
14209;SDS011;7188;56.070;12.698;2023-04-24T13:53:33;4.57;;;4.17;;
14209;SDS011;7188;56.070;12.698;2023-04-24T13:56:06;7.20;;;4.43;;
14209;SDS011;7188;56.070;12.698;2023-04-24T13:58:33;4.73;;;4.43;;
14209;SDS011;7188;56.070;12.698;2023-04-24T14:00:59;5.20;;;4.80;;
14209;SDS011;7188;56.070;12.698;2023-04-24T14:03:24;4.50;;;4.10;;
14209;SDS011;7188;56.070;12.698;2023-04-24T14:05:50;5.20;;;4.80;;
14209;SDS011;7188;56.070;12.698;2023-04-24T14:08:16;4.53;;;4.13;;
14209;SDS011;7188;56.070;12.698;2023-04-24T14:10:42;3.80;;;3.50;;
14209;SDS011;7188;56.070;12.698;2023-04-24T14:13:08;4.93;;;3.80;;
14209;SDS011;7188;56.070;12.698;2023-04-24T14:15:35;4.97;;;3.40;;
14209;SDS011;7188;56.070;12.698;2023-04-24T14:18:01;4.27;;;3.83;;
14209;SDS011;7188;56.070;12.698;2023-04-24T14:20:28;4.07;;;3.70;;
14209;SDS011;7188;56.070;12.698;2023-04-24T14:22:53;3.23;;;3.00;;
14209;SDS011;7188;56.070;12.698;2023-04-24T14:25:19;3.60;;;3.30;;
14209;SDS011;7188;56.070;12.698;2023-04-24T14:27:48;4.73;;;3.60;;
14209;SDS011;7188;56.070;12.698;2023-04-24T14:30:14;3.87;;;3.67;;
14209;SDS011;7188;56.070;12.698;2023-04-24T14:32:40;3.40;;;3.20;;
14209;SDS011;7188;56.070;12.698;2023-04-24T14:35:06;3.97;;;3.60;;
14209;SDS011;7188;56.070;12.698;2023-04-24T14:37:32;3.80;;;3.40;;
14209;SDS011;7188;56.070;12.698;2023-04-24T14:39:58;3.70;;;3.40;;
14209;SDS011;7188;56.070;12.698;2023-04-24T14:42:24;3.77;;;3.47;;
14209;SDS011;7188;56.070;12.698;2023-04-24T14:44:49;3.90;;;3.47;;
14209;SDS011;7188;56.070;12.698;2023-04-24T14:47:16;3.43;;;3.13;;
14209;SDS011;7188;56.070;12.698;2023-04-24T14:49:46;3.43;;;3.07;;
14209;SDS011;7188;56.070;12.698;2023-04-24T14:52:30;3.90;;;3.60;;
14209;SDS011;7188;56.070;12.698;2023-04-24T14:54:55;3.57;;;3.27;;
14209;SDS011;7188;56.070;12.698;2023-04-24T14:57:22;4.10;;;3.03;;